createdAt,value
2018-01-17T00:02:03.141Z,7.87
2018-01-17T00:04:30.825Z,7.87
2018-01-17T00:06:58.417Z,6.75
2018-01-17T00:09:26.317Z,6.90
2018-01-17T00:11:53.902Z,8.48
2018-01-17T00:14:21.447Z,10.30
2018-01-17T00:16:49.045Z,8.70
2018-01-17T00:19:16.576Z,9.70
2018-01-17T00:21:44.173Z,9.40
2018-01-17T00:24:11.785Z,10.98
2018-01-17T00:26:39.360Z,12.63
2018-01-17T00:29:06.925Z,11.00
2018-01-17T00:31:34.500Z,9.23
2018-01-17T00:34:02.049Z,11.00
2018-01-17T00:36:29.699Z,9.10
2018-01-17T00:38:57.403Z,7.32
2018-01-17T00:41:24.979Z,8.80
2018-01-17T00:43:53.287Z,6.25
2018-01-17T00:46:20.868Z,7.55
2018-01-17T00:48:49.219Z,7.50
2018-01-17T00:51:17.391Z,8.38
2018-01-17T00:53:44.922Z,8.27
2018-01-17T00:56:12.457Z,7.80
2018-01-17T00:58:40.089Z,7.43
2018-01-17T01:01:07.763Z,7.55
2018-01-17T01:03:35.376Z,6.70
2018-01-17T01:06:03.019Z,7.40
2018-01-17T01:08:30.638Z,6.03
2018-01-17T01:10:58.142Z,5.32
2018-01-17T01:13:25.741Z,6.25
2018-01-17T01:15:53.361Z,4.15
2018-01-17T01:18:20.898Z,6.35
2018-01-17T01:20:48.468Z,5.40
2018-01-17T01:23:16.061Z,5.72
2018-01-17T01:25:44.353Z,5.50
2018-01-17T01:28:11.911Z,5.80
2018-01-17T01:30:39.476Z,4.68
2018-01-17T01:33:07.073Z,5.55
2018-01-17T01:35:34.781Z,6.20
2018-01-17T01:38:04.090Z,5.80
2018-01-17T01:40:32.764Z,5.40
2018-01-17T01:43:00.395Z,6.60
2018-01-17T01:45:27.972Z,4.93
2018-01-17T01:47:55.888Z,5.35
2018-01-17T01:50:23.509Z,4.87
2018-01-17T01:52:51.061Z,4.25
2018-01-17T01:55:18.633Z,5.30
2018-01-17T01:57:46.988Z,2.97
2018-01-17T02:00:14.586Z,2.90
2018-01-17T02:02:42.608Z,4.18
2018-01-17T02:05:10.392Z,4.10
2018-01-17T02:07:37.935Z,4.32
2018-01-17T02:10:05.523Z,4.45
2018-01-17T02:12:33.896Z,4.07
2018-01-17T02:15:02.302Z,5.05
2018-01-17T02:17:29.873Z,4.00
2018-01-17T02:19:57.491Z,5.03
2018-01-17T02:22:27.859Z,4.65
2018-01-17T02:24:55.501Z,5.18
2018-01-17T02:27:23.167Z,4.80
2018-01-17T02:29:50.867Z,4.78
2018-01-17T02:32:18.455Z,4.70
2018-01-17T02:34:46.848Z,5.12
2018-01-17T02:37:15.476Z,5.20
2018-01-17T02:39:54.957Z,5.85
2018-01-17T02:42:22.578Z,6.32
2018-01-17T02:44:50.157Z,5.60
2018-01-17T02:47:18.584Z,8.05
2018-01-17T02:49:46.908Z,6.68
2018-01-17T02:52:14.519Z,8.00
2018-01-17T02:54:42.861Z,6.70
2018-01-17T02:57:10.448Z,6.12
2018-01-17T02:59:38.835Z,8.65
2018-01-17T03:02:06.393Z,7.12
2018-01-17T03:04:34.732Z,7.40
2018-01-17T03:07:02.275Z,7.05
2018-01-17T03:09:29.835Z,6.72
2018-01-17T03:11:57.367Z,5.82
2018-01-17T03:14:24.977Z,6.25
2018-01-17T03:16:52.507Z,6.20
2018-01-17T03:19:20.114Z,6.07
2018-01-17T03:21:47.749Z,5.80
2018-01-17T03:24:15.346Z,5.60
2018-01-17T03:26:42.888Z,6.37
2018-01-17T03:29:10.668Z,5.43
2018-01-17T03:31:38.210Z,5.07
2018-01-17T03:34:05.821Z,5.47
2018-01-17T03:36:33.432Z,5.97
2018-01-17T03:39:01.788Z,4.72
2018-01-17T03:41:29.416Z,3.67
2018-01-17T03:43:57.014Z,5.12
2018-01-17T03:46:24.582Z,5.20
2018-01-17T03:48:52.144Z,4.80
2018-01-17T03:51:19.780Z,5.35
2018-01-17T03:53:47.939Z,6.10
2018-01-17T03:56:15.521Z,5.85
2018-01-17T03:58:43.146Z,5.72
2018-01-17T04:01:10.694Z,6.18
2018-01-17T04:03:38.244Z,6.40
2018-01-17T04:06:05.810Z,6.95
2018-01-17T04:08:33.400Z,5.82
2018-01-17T04:11:00.987Z,6.18
2018-01-17T04:13:28.620Z,6.60
2018-01-17T04:15:56.206Z,5.85
2018-01-17T04:18:23.776Z,6.62
2018-01-17T04:20:51.454Z,5.82
2018-01-17T04:23:18.990Z,6.07
2018-01-17T04:25:46.538Z,6.03
2018-01-17T04:28:14.206Z,7.22
2018-01-17T04:30:42.525Z,5.87
2018-01-17T04:33:10.891Z,6.18
2018-01-17T04:35:38.461Z,5.90
2018-01-17T04:38:06.062Z,6.45
2018-01-17T04:40:33.678Z,5.57
2018-01-17T04:43:01.268Z,6.60
2018-01-17T04:45:30.679Z,6.12
2018-01-17T04:47:58.214Z,7.22
2018-01-17T04:50:25.798Z,7.85
2018-01-17T04:52:53.598Z,4.05
2018-01-17T04:55:21.309Z,6.00
2018-01-17T04:57:49.199Z,6.32
2018-01-17T05:00:16.783Z,6.37
2018-01-17T05:02:45.066Z,7.43
2018-01-17T05:05:12.683Z,6.85
2018-01-17T05:07:40.319Z,6.70
2018-01-17T05:10:07.921Z,5.80
2018-01-17T05:12:35.506Z,6.57
2018-01-17T05:15:03.098Z,6.87
2018-01-17T05:17:30.714Z,6.93
2018-01-17T05:19:59.037Z,6.82
2018-01-17T05:22:26.627Z,6.85
2018-01-17T05:24:54.178Z,7.32
2018-01-17T05:27:21.767Z,6.60
2018-01-17T05:29:49.333Z,7.05
2018-01-17T05:32:17.677Z,7.25
2018-01-17T05:34:46.154Z,3.67
2018-01-17T05:37:13.742Z,6.30
2018-01-17T05:39:41.366Z,6.00
2018-01-17T05:42:08.945Z,7.68
2018-01-17T05:44:36.493Z,5.43
2018-01-17T05:47:04.080Z,6.28
2018-01-17T05:49:31.708Z,6.05
2018-01-17T05:51:59.329Z,4.78
2018-01-17T05:54:26.937Z,5.00
2018-01-17T05:56:54.522Z,6.97
2018-01-17T05:59:22.107Z,4.70
2018-01-17T06:01:49.753Z,5.78
2018-01-17T06:04:18.131Z,4.37
2018-01-17T06:06:46.613Z,4.95
2018-01-17T06:09:14.927Z,4.25
2018-01-17T06:11:42.665Z,5.18
2018-01-17T06:14:10.220Z,4.93
2018-01-17T06:16:38.578Z,4.87
2018-01-17T06:19:06.493Z,3.67
2018-01-17T06:21:34.152Z,4.55
2018-01-17T06:24:01.686Z,4.20
2018-01-17T06:26:30.034Z,4.10
2018-01-17T06:28:57.607Z,3.75
2018-01-17T06:31:25.165Z,4.30
2018-01-17T06:33:52.771Z,3.42
2018-01-17T06:36:20.407Z,3.33
2018-01-17T06:38:48.812Z,4.00
2018-01-17T06:41:16.414Z,3.33
2018-01-17T06:43:44.071Z,6.05
2018-01-17T06:46:11.669Z,3.20
2018-01-17T06:48:40.946Z,2.78
2018-01-17T06:51:09.368Z,2.45
2018-01-17T06:53:36.999Z,3.40
2018-01-17T06:56:04.560Z,3.08
2018-01-17T06:58:32.911Z,3.65
2018-01-17T07:01:00.464Z,4.00
2018-01-17T07:03:28.025Z,2.87
2018-01-17T07:05:55.608Z,4.20
2018-01-17T07:08:23.211Z,3.58
2018-01-17T07:10:50.772Z,2.65
2018-01-17T07:13:18.363Z,3.00
2018-01-17T07:15:45.955Z,4.55
2018-01-17T07:18:14.098Z,3.17
2018-01-17T07:20:42.450Z,3.20
2018-01-17T07:23:10.033Z,3.17
2018-01-17T07:25:37.634Z,3.60
2018-01-17T07:28:05.195Z,3.78
2018-01-17T07:30:32.739Z,3.90
2018-01-17T07:33:01.076Z,2.45
2018-01-17T07:35:28.724Z,2.25
2018-01-17T07:37:56.273Z,2.47
2018-01-17T07:40:23.815Z,3.95
2018-01-17T07:42:51.377Z,3.70
2018-01-17T07:45:18.974Z,3.92
2018-01-17T07:47:46.541Z,4.05
2018-01-17T07:50:14.874Z,4.15
2018-01-17T07:52:42.423Z,3.62
2018-01-17T07:55:09.981Z,2.42
2018-01-17T07:57:37.555Z,3.10
2018-01-17T08:00:05.147Z,2.65
2018-01-17T08:02:32.768Z,4.20
2018-01-17T08:05:00.682Z,4.10
2018-01-17T08:07:28.275Z,5.00
2018-01-17T08:09:55.934Z,5.45
2018-01-17T08:12:24.342Z,3.83
2018-01-17T08:14:52.638Z,3.50
2018-01-17T08:17:21.107Z,4.53
2018-01-17T08:19:48.705Z,4.70
2018-01-17T08:22:16.243Z,4.87
2018-01-17T08:24:44.773Z,4.97
2018-01-17T08:27:13.090Z,6.00
2018-01-17T08:29:40.912Z,6.47
2018-01-17T08:32:09.294Z,5.82
2018-01-17T08:34:36.897Z,5.15
2018-01-17T08:37:04.500Z,5.72
2018-01-17T08:39:32.098Z,3.12
2018-01-17T08:42:00.307Z,5.47
2018-01-17T08:44:27.870Z,5.30
2018-01-17T08:46:55.425Z,6.78
2018-01-17T08:49:22.984Z,5.57
2018-01-17T08:51:50.681Z,5.28
2018-01-17T08:54:18.258Z,6.10
2018-01-17T08:56:45.880Z,6.43
2018-01-17T08:59:13.824Z,4.55
2018-01-17T09:01:41.380Z,4.65
2018-01-17T09:04:08.953Z,4.97
2018-01-17T09:06:36.492Z,4.37
2018-01-17T09:09:04.349Z,4.15
2018-01-17T09:11:33.451Z,5.37
2018-01-17T09:14:01.036Z,4.62
2018-01-17T09:16:28.563Z,4.82
2018-01-17T09:18:56.872Z,5.50
2018-01-17T09:21:24.435Z,4.95
2018-01-17T09:23:51.997Z,4.90
2018-01-17T09:26:19.541Z,6.50
2018-01-17T09:28:48.771Z,4.00
2018-01-17T09:31:16.773Z,5.00
2018-01-17T09:33:44.330Z,3.85
2018-01-17T09:36:12.012Z,3.95
2018-01-17T09:38:39.619Z,3.83
2018-01-17T09:41:07.977Z,3.60
2018-01-17T09:43:36.360Z,3.53
2018-01-17T09:46:03.969Z,2.92
2018-01-17T09:48:31.525Z,5.50
2018-01-17T09:50:59.937Z,4.45
2018-01-17T09:53:27.509Z,5.37
2018-01-17T09:55:55.117Z,4.05
2018-01-17T09:58:22.671Z,3.75
2018-01-17T10:00:50.223Z,4.55
2018-01-17T10:03:17.763Z,4.22
2018-01-17T10:05:46.398Z,3.67
2018-01-17T10:08:13.915Z,3.30
2018-01-17T10:10:41.462Z,3.17
2018-01-17T10:13:09.027Z,3.12
2018-01-17T10:15:36.576Z,4.03
2018-01-17T10:18:05.839Z,3.25
2018-01-17T10:20:33.385Z,3.50
2018-01-17T10:23:00.896Z,3.92
2018-01-17T10:25:29.246Z,2.72
2018-01-17T10:27:57.199Z,2.33
2018-01-17T10:30:24.758Z,3.20
2018-01-17T10:32:52.388Z,3.05
2018-01-17T10:35:19.972Z,2.20
2018-01-17T10:37:47.635Z,2.65
2018-01-17T10:40:15.497Z,4.15
2018-01-17T10:42:43.700Z,3.92
2018-01-17T10:45:11.334Z,3.65
2018-01-17T10:47:39.219Z,5.20
2018-01-17T10:50:06.815Z,4.90
2018-01-17T10:52:35.161Z,4.15
2018-01-17T10:55:02.971Z,3.45
2018-01-17T10:57:31.333Z,2.90
2018-01-17T10:59:59.758Z,3.20
2018-01-17T11:02:27.326Z,3.60
2018-01-17T11:04:54.883Z,4.20
2018-01-17T11:07:22.416Z,2.35
2018-01-17T11:09:50.065Z,3.58
2018-01-17T11:12:18.357Z,4.85
2018-01-17T11:14:45.934Z,2.47
2018-01-17T11:17:13.511Z,4.28
2018-01-17T11:19:41.095Z,3.15
2018-01-17T11:22:08.706Z,4.05
2018-01-17T11:24:37.341Z,4.12
2018-01-17T11:27:05.658Z,4.18
2018-01-17T11:29:33.316Z,5.60
2018-01-17T11:32:00.981Z,3.85
2018-01-17T11:34:28.555Z,3.50
2018-01-17T11:36:56.860Z,3.05
2018-01-17T11:39:24.443Z,4.45
2018-01-17T11:41:52.090Z,4.32
2018-01-17T11:44:19.713Z,3.80
2018-01-17T11:46:47.425Z,4.50
2018-01-17T11:49:15.044Z,3.90
2018-01-17T11:51:42.577Z,4.60
2018-01-17T11:54:10.940Z,4.00
2018-01-17T11:56:38.558Z,5.57
2018-01-17T11:59:06.113Z,4.20
2018-01-17T12:01:33.740Z,5.43
2018-01-17T12:04:02.095Z,6.22
2018-01-17T12:06:30.637Z,5.75
2018-01-17T12:08:58.202Z,4.10
2018-01-17T12:11:25.900Z,4.15
2018-01-17T12:13:53.489Z,3.80
2018-01-17T12:16:21.060Z,6.10
2018-01-17T12:18:48.710Z,3.50
2018-01-17T12:21:16.324Z,3.03
2018-01-17T12:23:43.861Z,3.78
2018-01-17T12:26:11.385Z,3.80
2018-01-17T12:28:38.950Z,2.05
2018-01-17T12:31:06.617Z,3.87
2018-01-17T12:33:34.133Z,4.68
2018-01-17T12:36:02.643Z,4.65
2018-01-17T12:38:30.916Z,4.55
2018-01-17T12:40:58.442Z,4.05
2018-01-17T12:43:26.763Z,4.30
2018-01-17T12:45:54.295Z,3.47
2018-01-17T12:48:22.636Z,3.28
2018-01-17T12:50:50.213Z,2.22
2018-01-17T12:53:18.532Z,2.95
2018-01-17T12:55:46.087Z,3.28
2018-01-17T12:58:13.643Z,2.67
2018-01-17T13:00:41.240Z,2.47
2018-01-17T13:03:08.777Z,2.37
2018-01-17T13:05:36.997Z,2.70
2018-01-17T13:08:04.592Z,2.42
2018-01-17T13:10:32.168Z,3.75
2018-01-17T13:13:00.766Z,2.97
2018-01-17T13:15:28.298Z,4.30
2018-01-17T13:17:55.875Z,3.22
2018-01-17T13:20:23.486Z,4.05
2018-01-17T13:22:52.026Z,2.80
2018-01-17T13:25:19.574Z,4.65
2018-01-17T13:27:47.136Z,3.45
2018-01-17T13:30:14.734Z,2.87
2018-01-17T13:32:43.231Z,2.75
2018-01-17T13:35:10.792Z,4.00
2018-01-17T13:37:39.123Z,1.52
2018-01-17T13:40:07.335Z,2.90
2018-01-17T13:42:34.885Z,1.65
2018-01-17T13:45:02.462Z,2.10
2018-01-17T13:47:31.643Z,2.25
2018-01-17T13:49:59.257Z,2.40
2018-01-17T13:52:26.915Z,1.70
2018-01-17T13:54:54.504Z,2.22
2018-01-17T13:57:22.070Z,1.80
2018-01-17T13:59:50.593Z,1.77
2018-01-17T14:02:18.938Z,2.15
2018-01-17T14:04:46.488Z,1.75
2018-01-17T14:07:14.889Z,1.48
2018-01-17T14:09:42.457Z,1.48
2018-01-17T14:12:10.021Z,2.37
2018-01-17T14:14:38.439Z,1.70
2018-01-17T14:17:06.052Z,1.60
2018-01-17T14:19:33.651Z,1.80
2018-01-17T14:22:01.250Z,1.60
2018-01-17T14:24:28.900Z,1.80
2018-01-17T14:26:57.249Z,2.80
2018-01-17T14:29:24.795Z,2.70
2018-01-17T14:31:53.150Z,1.48
2018-01-17T14:34:20.714Z,2.53
2018-01-17T14:36:48.296Z,1.80
2018-01-17T14:39:15.913Z,2.65
2018-01-17T14:41:44.270Z,2.65
2018-01-17T14:44:12.943Z,2.47
2018-01-17T14:46:40.589Z,2.67
2018-01-17T14:49:08.193Z,4.03
2018-01-17T14:51:35.910Z,1.62
2018-01-17T14:54:03.508Z,2.80
2018-01-17T14:56:31.090Z,3.90
2018-01-17T14:58:58.791Z,2.90
2018-01-17T15:01:26.418Z,3.55
2018-01-17T15:03:54.012Z,3.87
2018-01-17T15:06:21.594Z,2.40
2018-01-17T15:08:49.200Z,3.60
2018-01-17T15:11:17.808Z,2.40
2018-01-17T15:13:45.406Z,2.03
2018-01-17T15:16:13.056Z,3.90
2018-01-17T15:18:40.640Z,2.72
2018-01-17T15:21:08.250Z,2.20
2018-01-17T15:23:35.845Z,3.17
2018-01-17T15:26:03.469Z,3.30
2018-01-17T15:28:32.057Z,2.58
2018-01-17T15:31:00.384Z,2.72
2018-01-17T15:33:27.999Z,3.15
2018-01-17T15:35:55.622Z,3.67
2018-01-17T15:38:23.339Z,2.45
2018-01-17T15:40:51.156Z,3.40
2018-01-17T15:43:18.757Z,2.83
2018-01-17T15:45:47.325Z,3.37
2018-01-17T15:48:14.899Z,3.60
2018-01-17T15:50:42.523Z,3.03
2018-01-17T15:53:10.116Z,2.62
2018-01-17T15:55:37.742Z,3.85
2018-01-17T15:58:05.341Z,1.98
2018-01-17T16:00:33.852Z,3.45
2018-01-17T16:03:01.441Z,2.30
2018-01-17T16:05:29.005Z,2.85
2018-01-17T16:07:56.699Z,2.67
2018-01-17T16:10:24.296Z,2.80
2018-01-17T16:12:51.982Z,3.05
2018-01-17T16:15:19.564Z,3.85
2018-01-17T16:17:47.817Z,2.30
2018-01-17T16:20:16.817Z,2.25
2018-01-17T16:22:44.448Z,2.75
2018-01-17T16:25:12.103Z,3.28
2018-01-17T16:27:39.704Z,2.35
2018-01-17T16:30:07.261Z,2.67
2018-01-17T16:32:34.853Z,3.05
2018-01-17T16:35:03.190Z,3.22
2018-01-17T16:37:31.487Z,2.40
2018-01-17T16:39:59.115Z,3.70
2018-01-17T16:42:26.701Z,2.47
2018-01-17T16:44:54.384Z,4.55
2018-01-17T16:47:21.954Z,2.50
2018-01-17T16:49:50.357Z,3.70
2018-01-17T16:52:18.647Z,3.12
2018-01-17T16:54:46.271Z,4.30
2018-01-17T16:57:14.745Z,7.40
2018-01-17T16:59:43.103Z,12.15
2018-01-17T17:02:11.483Z,5.68
2018-01-17T17:04:39.888Z,4.82
2018-01-17T17:07:07.513Z,2.80
2018-01-17T17:09:35.150Z,4.07
2018-01-17T17:12:02.727Z,3.70
2018-01-17T17:14:30.308Z,4.12
2018-01-17T17:16:58.638Z,4.18
2018-01-17T17:19:26.193Z,2.45
2018-01-17T17:21:53.797Z,4.07
2018-01-17T17:24:21.411Z,4.32
2018-01-17T17:26:50.501Z,4.82
2018-01-17T17:29:18.066Z,3.87
2018-01-17T17:31:45.595Z,4.03
2018-01-17T17:34:13.143Z,4.28
2018-01-17T17:36:40.693Z,5.93
2018-01-17T17:39:08.263Z,3.30
2018-01-17T17:41:35.854Z,3.80
2018-01-17T17:44:03.514Z,2.72
2018-01-17T17:46:31.086Z,2.65
2018-01-17T17:48:58.696Z,3.20
2018-01-17T17:51:26.642Z,1.80
2018-01-17T17:53:54.314Z,1.62
2018-01-17T17:56:21.885Z,3.08
2018-01-17T17:58:49.673Z,3.20
2018-01-17T18:01:17.593Z,3.17
2018-01-17T18:03:45.278Z,4.30
2018-01-17T18:06:13.719Z,3.65
2018-01-17T18:08:41.257Z,4.25
2018-01-17T18:11:08.877Z,2.75
2018-01-17T18:13:36.456Z,2.53
2018-01-17T18:16:05.380Z,4.53
2018-01-17T18:18:33.015Z,4.87
2018-01-17T18:21:00.646Z,3.83
2018-01-17T18:23:28.299Z,4.57
2018-01-17T18:25:55.893Z,5.05
2018-01-17T18:28:24.333Z,4.78
2018-01-17T18:30:52.022Z,5.07
2018-01-17T18:33:19.995Z,5.20
2018-01-17T18:35:47.617Z,3.33
2018-01-17T18:38:15.236Z,5.80
2018-01-17T18:40:43.141Z,5.00
2018-01-17T18:43:10.821Z,5.22
2018-01-17T18:45:38.401Z,5.00
2018-01-17T18:48:06.959Z,5.87
2018-01-17T18:50:34.584Z,5.62
2018-01-17T18:53:02.246Z,4.78
2018-01-17T18:55:29.840Z,4.90
2018-01-17T18:57:57.433Z,5.37
2018-01-17T19:00:25.088Z,4.72
2018-01-17T19:02:52.785Z,4.55
2018-01-17T19:05:20.435Z,3.87
2018-01-17T19:07:48.655Z,3.87
2018-01-17T19:10:16.210Z,3.35
2018-01-17T19:12:44.173Z,3.10
2018-01-17T19:15:11.734Z,3.97
2018-01-17T19:17:39.288Z,4.43
2018-01-17T19:20:06.863Z,4.00
2018-01-17T19:22:34.491Z,3.90
2018-01-17T19:25:02.027Z,3.78
2018-01-17T19:27:30.402Z,3.78
2018-01-17T19:29:58.811Z,3.95
2018-01-17T19:32:26.555Z,3.50
2018-01-17T19:34:54.295Z,5.55
2018-01-17T19:37:21.853Z,5.07
2018-01-17T19:39:49.532Z,4.45
2018-01-17T19:42:17.857Z,4.05
2018-01-17T19:44:45.709Z,4.20
2018-01-17T19:47:13.341Z,4.45
2018-01-17T19:49:43.469Z,3.78
2018-01-17T19:52:11.907Z,5.10
2018-01-17T19:54:39.628Z,4.68
2018-01-17T19:57:10.710Z,5.78
2018-01-17T19:59:38.809Z,3.80
2018-01-17T20:02:07.165Z,3.62
2018-01-17T20:04:34.992Z,3.33
2018-01-17T20:07:02.628Z,3.45
2018-01-17T20:09:31.040Z,4.53
2018-01-17T20:11:58.816Z,3.33
2018-01-17T20:14:29.893Z,3.17
2018-01-17T20:16:57.540Z,3.60
2018-01-17T20:19:25.154Z,3.30
2018-01-17T20:21:52.760Z,3.60
2018-01-17T20:24:21.012Z,3.20
2018-01-17T20:26:48.624Z,3.50
2018-01-17T20:29:16.283Z,2.20
2018-01-17T20:31:44.094Z,2.25
2018-01-17T20:34:11.720Z,4.55
2018-01-17T20:36:39.309Z,4.43
2018-01-17T20:39:06.982Z,3.37
2018-01-17T20:41:34.596Z,2.60
2018-01-17T20:44:02.247Z,3.28
2018-01-17T20:46:29.925Z,3.30
2018-01-17T20:48:57.710Z,4.85
2018-01-17T20:51:25.789Z,2.83
2018-01-17T20:53:53.453Z,4.40
2018-01-17T20:56:21.683Z,3.50
2018-01-17T20:58:49.321Z,3.55
2018-01-17T21:01:17.180Z,3.20
2018-01-17T21:03:44.804Z,3.55
2018-01-17T21:06:12.457Z,3.22
2018-01-17T21:08:40.850Z,3.87
2018-01-17T21:11:08.479Z,3.40
2018-01-17T21:13:37.042Z,3.17
2018-01-17T21:16:04.610Z,2.83
2018-01-17T21:18:32.237Z,3.85
2018-01-17T21:20:59.857Z,3.62
2018-01-17T21:23:28.231Z,3.45
2018-01-17T21:25:56.622Z,3.35
2018-01-17T21:28:24.173Z,3.85
2018-01-17T21:30:51.744Z,3.80
2018-01-17T21:33:20.182Z,3.83
2018-01-17T21:35:47.808Z,3.35
2018-01-17T21:38:15.641Z,3.50
2018-01-17T21:40:43.639Z,3.25
2018-01-17T21:46:12.399Z,3.00
2018-01-17T21:48:39.986Z,3.70
2018-01-17T21:51:08.332Z,2.70
2018-01-17T21:53:36.002Z,3.00
2018-01-17T21:56:03.769Z,3.60
2018-01-17T21:58:31.315Z,3.03
2018-01-17T22:00:58.878Z,3.35
2018-01-17T22:03:26.410Z,2.72
2018-01-17T22:05:54.000Z,3.45
2018-01-17T22:08:21.635Z,4.30
2018-01-17T22:10:49.252Z,2.20
2018-01-17T22:13:16.801Z,3.70
2018-01-17T22:15:44.378Z,4.37
2018-01-17T22:18:11.974Z,2.97
2018-01-17T22:20:40.298Z,3.70
2018-01-17T22:23:07.933Z,5.20
2018-01-17T22:25:35.570Z,3.92
2018-01-17T22:28:03.949Z,3.42
2018-01-17T22:30:31.568Z,2.80
2018-01-17T22:32:59.171Z,3.37
2018-01-17T22:35:26.775Z,3.40
2018-01-17T22:37:54.364Z,3.42
2018-01-17T22:40:21.939Z,2.58
2018-01-17T22:42:50.309Z,3.62
2018-01-17T22:45:19.246Z,4.00
2018-01-17T22:47:49.491Z,4.37
2018-01-17T22:50:17.100Z,3.30
2018-01-17T22:52:45.497Z,2.62
2018-01-17T22:55:13.168Z,4.15
2018-01-17T22:57:40.753Z,3.17
2018-01-17T23:00:08.316Z,3.25
2018-01-17T23:02:35.946Z,3.53
2018-01-17T23:05:03.548Z,3.33
2018-01-17T23:07:31.112Z,4.03
2018-01-17T23:09:59.685Z,5.57
2018-01-17T23:12:27.195Z,4.40
2018-01-17T23:14:54.742Z,6.28
2018-01-17T23:17:23.506Z,5.20
2018-01-17T23:19:51.069Z,5.32
2018-01-17T23:22:18.646Z,6.07
2018-01-17T23:24:47.014Z,5.60
2018-01-17T23:27:14.654Z,5.32
2018-01-17T23:29:42.176Z,6.30
2018-01-17T23:32:09.878Z,5.10
2018-01-17T23:34:37.451Z,6.03
2018-01-17T23:37:05.069Z,5.25
2018-01-17T23:39:32.626Z,5.62
2018-01-17T23:42:00.172Z,5.87
2018-01-17T23:44:27.857Z,6.30
2018-01-17T23:46:55.537Z,4.37
2018-01-17T23:49:23.132Z,4.68
2018-01-17T23:51:51.509Z,4.45
2018-01-17T23:54:20.850Z,5.45
2018-01-17T23:56:48.405Z,3.47
2018-01-17T23:59:16.148Z,4.15
